createdAt,value
2017-09-21T00:02:20.255Z,10.10
2017-09-21T00:04:47.614Z,10.10
2017-09-21T00:07:14.098Z,10.10
2017-09-21T00:09:41.378Z,10.20
2017-09-21T00:12:07.873Z,10.20
2017-09-21T00:14:35.321Z,10.20
2017-09-21T00:17:01.742Z,10.20
2017-09-21T00:19:29.042Z,10.00
2017-09-21T00:21:55.462Z,10.00
2017-09-21T00:24:21.956Z,10.00
2017-09-21T00:26:48.391Z,9.90
2017-09-21T00:29:14.797Z,10.00
2017-09-21T00:31:41.235Z,9.90
2017-09-21T00:34:07.771Z,9.80
2017-09-21T00:36:34.948Z,9.60
2017-09-21T00:39:01.376Z,9.50
2017-09-21T00:41:28.766Z,9.30
2017-09-21T00:43:55.244Z,9.30
2017-09-21T00:46:21.716Z,9.20
2017-09-21T00:48:48.183Z,9.30
2017-09-21T00:51:14.621Z,9.40
2017-09-21T00:53:41.103Z,9.30
2017-09-21T00:56:07.554Z,9.40
2017-09-21T00:58:34.279Z,9.50
2017-09-21T01:01:00.795Z,9.50
2017-09-21T01:03:27.593Z,9.50
2017-09-21T01:05:54.227Z,9.60
2017-09-21T01:08:20.805Z,9.50
2017-09-21T01:10:47.286Z,9.50
2017-09-21T01:13:13.775Z,9.50
2017-09-21T01:15:41.125Z,9.40
2017-09-21T01:18:07.611Z,9.40
2017-09-21T01:20:34.210Z,9.40
2017-09-21T01:23:00.702Z,9.50
2017-09-21T01:25:27.374Z,9.50
2017-09-21T01:27:53.869Z,9.60
2017-09-21T01:30:20.471Z,9.60
2017-09-21T01:32:47.018Z,9.60
2017-09-21T01:35:13.536Z,9.70
2017-09-21T01:37:40.027Z,9.70
2017-09-21T01:40:06.474Z,9.70
2017-09-21T01:42:34.394Z,9.70
2017-09-21T01:47:32.558Z,9.70
2017-09-21T01:49:59.054Z,9.80
2017-09-21T01:52:25.503Z,9.90
2017-09-21T01:54:52.739Z,9.90
2017-09-21T01:57:19.241Z,9.90
2017-09-21T01:59:45.705Z,10.00
2017-09-21T02:02:12.226Z,9.90
2017-09-21T02:04:38.750Z,10.00
2017-09-21T02:07:05.247Z,9.90
2017-09-21T02:09:32.406Z,9.90
2017-09-21T02:11:58.861Z,9.90
2017-09-21T02:14:25.318Z,9.90
2017-09-21T02:16:51.746Z,9.90
2017-09-21T02:19:18.185Z,9.80
2017-09-21T02:21:44.697Z,9.80
2017-09-21T02:24:11.138Z,9.70
2017-09-21T02:26:37.567Z,9.70
2017-09-21T02:29:03.990Z,9.60
2017-09-21T02:31:30.775Z,9.60
2017-09-21T02:33:57.271Z,9.50
2017-09-21T02:36:23.832Z,9.50
2017-09-21T02:38:51.034Z,9.40
2017-09-21T02:41:17.486Z,9.30
2017-09-21T02:43:43.935Z,9.40
2017-09-21T02:46:10.354Z,9.40
2017-09-21T02:48:36.775Z,9.40
2017-09-21T02:51:03.195Z,9.30
2017-09-21T02:53:30.695Z,9.30
2017-09-21T02:55:58.611Z,9.30
2017-09-21T02:58:25.860Z,9.30
2017-09-21T03:00:52.410Z,9.30
2017-09-21T03:03:18.842Z,9.30
2017-09-21T03:05:45.277Z,9.20
2017-09-21T03:08:11.682Z,9.30
2017-09-21T03:10:38.139Z,9.30
2017-09-21T03:13:04.560Z,9.30
2017-09-21T03:15:31.789Z,9.20
2017-09-21T03:17:58.974Z,9.30
2017-09-21T03:20:26.254Z,9.40
2017-09-21T03:22:52.776Z,9.40
2017-09-21T03:25:19.184Z,9.40
2017-09-21T03:27:46.352Z,9.50
2017-09-21T03:30:12.751Z,9.40
2017-09-21T03:32:39.176Z,9.50
2017-09-21T03:35:07.159Z,9.50
2017-09-21T03:37:33.612Z,9.50
2017-09-21T03:40:00.082Z,9.50
2017-09-21T03:42:26.700Z,9.50
2017-09-21T03:44:53.127Z,9.40
2017-09-21T03:47:19.626Z,9.50
2017-09-21T03:49:46.067Z,9.50
2017-09-21T03:52:12.649Z,9.60
2017-09-21T03:54:39.063Z,9.60
2017-09-21T03:57:05.523Z,9.70
2017-09-21T03:59:32.198Z,9.60
2017-09-21T04:01:58.653Z,9.50
2017-09-21T04:04:25.909Z,9.50
2017-09-21T04:06:52.391Z,9.50
2017-09-21T04:09:18.955Z,9.50
2017-09-21T04:11:45.413Z,9.50
2017-09-21T04:14:11.963Z,9.50
2017-09-21T04:16:39.541Z,9.50
2017-09-21T04:19:05.998Z,9.60
2017-09-21T04:21:32.621Z,9.60
2017-09-21T04:23:59.284Z,9.60
2017-09-21T04:26:26.609Z,9.60
2017-09-21T04:28:54.621Z,9.60
2017-09-21T04:31:21.874Z,9.70
2017-09-21T04:33:49.039Z,9.60
2017-09-21T04:36:16.195Z,9.60
2017-09-21T04:38:42.606Z,9.60
2017-09-21T04:41:09.790Z,9.70
2017-09-21T04:43:36.231Z,9.70
2017-09-21T04:46:03.483Z,9.70
2017-09-21T04:48:30.058Z,9.70
2017-09-21T04:50:57.272Z,9.70
2017-09-21T04:53:23.743Z,9.70
2017-09-21T04:55:50.216Z,9.80
2017-09-21T04:58:16.699Z,9.80
2017-09-21T05:00:43.200Z,9.80
2017-09-21T05:03:09.681Z,9.80
2017-09-21T05:05:36.182Z,9.70
2017-09-21T05:08:02.711Z,9.70
2017-09-21T05:10:29.161Z,9.50
2017-09-21T05:12:55.574Z,9.70
2017-09-21T05:15:22.017Z,9.60
2017-09-21T05:17:48.556Z,9.70
2017-09-21T05:20:15.103Z,9.70
2017-09-21T05:22:42.349Z,9.80
2017-09-21T05:25:09.665Z,9.80
2017-09-21T05:27:36.193Z,9.70
2017-09-21T05:30:02.740Z,9.80
2017-09-21T05:32:29.255Z,9.80
2017-09-21T05:34:55.776Z,10.00
2017-09-21T05:37:23.036Z,10.00
2017-09-21T05:39:49.542Z,10.00
2017-09-21T05:42:16.053Z,10.20
2017-09-21T05:44:42.572Z,10.20
2017-09-21T05:47:09.002Z,10.40
2017-09-21T05:49:35.458Z,10.40
2017-09-21T05:52:01.979Z,10.50
2017-09-21T05:54:28.420Z,10.50
2017-09-21T05:56:54.857Z,10.60
2017-09-21T05:59:21.293Z,10.60
2017-09-21T06:01:47.764Z,10.70
2017-09-21T06:04:14.355Z,10.90
2017-09-21T06:06:40.819Z,11.10
2017-09-21T06:09:07.509Z,11.10
2017-09-21T06:11:34.810Z,11.20
2017-09-21T06:14:01.239Z,11.30
2017-09-21T06:16:27.730Z,11.50
2017-09-21T06:18:54.178Z,11.80
2017-09-21T06:21:20.782Z,11.90
2017-09-21T06:23:47.951Z,12.20
2017-09-21T06:26:14.372Z,12.20
2017-09-21T06:28:41.777Z,12.20
2017-09-21T06:31:08.228Z,12.20
2017-09-21T06:33:34.813Z,12.20
2017-09-21T06:36:01.341Z,12.20
2017-09-21T06:38:27.962Z,12.00
2017-09-21T06:40:54.492Z,11.90
2017-09-21T06:43:21.018Z,11.80
2017-09-21T06:45:48.226Z,11.60
2017-09-21T06:48:14.738Z,11.60
2017-09-21T06:50:41.168Z,11.60
2017-09-21T06:53:07.571Z,11.70
2017-09-21T06:55:33.974Z,11.70
2017-09-21T06:58:00.382Z,11.90
2017-09-21T07:00:26.947Z,11.90
2017-09-21T07:02:54.149Z,12.10
2017-09-21T07:05:20.682Z,12.10
2017-09-21T07:07:47.331Z,12.20
2017-09-21T07:10:13.774Z,12.30
2017-09-21T07:12:40.187Z,12.40
2017-09-21T07:15:06.638Z,12.30
2017-09-21T07:17:33.026Z,12.50
2017-09-21T07:19:59.486Z,12.70
2017-09-21T07:22:26.083Z,12.80
2017-09-21T07:24:52.626Z,12.80
2017-09-21T07:27:19.088Z,12.60
2017-09-21T07:29:45.560Z,12.70
2017-09-21T07:32:12.026Z,12.70
2017-09-21T07:34:39.294Z,12.70
2017-09-21T07:37:05.788Z,12.80
2017-09-21T07:39:32.719Z,12.90
2017-09-21T07:41:59.115Z,12.90
2017-09-21T07:44:27.243Z,13.00
2017-09-21T07:46:53.698Z,13.00
2017-09-21T07:49:20.196Z,13.00
2017-09-21T07:51:46.701Z,13.10
2017-09-21T07:54:13.184Z,13.20
2017-09-21T07:56:40.303Z,13.40
2017-09-21T07:59:06.843Z,13.50
2017-09-21T08:01:33.786Z,13.50
2017-09-21T08:04:00.734Z,13.30
2017-09-21T08:06:27.542Z,13.20
2017-09-21T08:08:54.475Z,13.20
2017-09-21T08:11:21.050Z,13.20
2017-09-21T08:13:48.795Z,13.20
2017-09-21T08:16:15.373Z,13.20
2017-09-21T08:18:41.997Z,13.30
2017-09-21T08:21:08.507Z,13.30
2017-09-21T08:23:34.931Z,13.20
2017-09-21T08:26:02.269Z,13.10
2017-09-21T08:28:29.745Z,13.20
2017-09-21T08:30:56.188Z,13.20
2017-09-21T08:33:22.635Z,13.30
2017-09-21T08:35:49.429Z,13.20
2017-09-21T08:38:15.968Z,13.20
2017-09-21T08:40:43.337Z,13.50
2017-09-21T08:43:09.991Z,13.50
2017-09-21T08:45:37.170Z,13.80
2017-09-21T08:48:03.669Z,13.70
2017-09-21T08:50:30.238Z,13.70
2017-09-21T08:52:57.128Z,13.60
2017-09-21T08:55:23.678Z,13.40
2017-09-21T08:57:50.239Z,13.60
2017-09-21T09:00:16.836Z,13.70
2017-09-21T09:02:43.457Z,13.90
2017-09-21T09:05:09.953Z,13.90
2017-09-21T09:07:36.535Z,14.00
2017-09-21T09:10:03.010Z,14.00
2017-09-21T09:12:29.739Z,13.90
2017-09-21T09:14:56.175Z,13.80
2017-09-21T09:17:22.643Z,13.90
2017-09-21T09:19:49.077Z,14.00
2017-09-21T09:22:15.520Z,14.20
2017-09-21T09:24:41.923Z,14.30
2017-09-21T09:27:08.342Z,14.40
2017-09-21T09:29:34.922Z,14.50
2017-09-21T09:32:01.352Z,14.50
2017-09-21T09:34:28.057Z,14.70
2017-09-21T09:36:54.506Z,14.70
2017-09-21T09:39:21.023Z,14.50
2017-09-21T09:41:47.447Z,14.70
2017-09-21T09:44:14.611Z,14.70
2017-09-21T09:46:41.034Z,14.60
2017-09-21T09:49:07.451Z,14.40
2017-09-21T09:51:34.278Z,14.20
2017-09-21T09:54:00.748Z,14.10
2017-09-21T09:56:27.482Z,14.10
2017-09-21T09:58:53.964Z,14.30
2017-09-21T10:01:21.114Z,14.40
2017-09-21T10:03:48.311Z,14.40
2017-09-21T10:06:15.487Z,14.60
2017-09-21T10:08:42.114Z,14.60
2017-09-21T10:11:08.564Z,14.80
2017-09-21T10:13:35.185Z,14.90
2017-09-21T10:16:01.667Z,14.90
2017-09-21T10:18:28.231Z,15.00
2017-09-21T10:20:54.704Z,15.10
2017-09-21T10:23:21.222Z,15.00
2017-09-21T10:25:47.652Z,14.90
2017-09-21T10:28:14.137Z,14.80
2017-09-21T10:30:40.550Z,14.60
2017-09-21T10:33:06.971Z,14.50
2017-09-21T10:35:33.378Z,14.50
2017-09-21T10:37:59.803Z,14.50
2017-09-21T10:40:27.074Z,14.30
2017-09-21T10:42:53.531Z,14.30
2017-09-21T10:45:19.968Z,14.30
2017-09-21T10:47:46.391Z,14.20
2017-09-21T10:50:12.795Z,14.10
2017-09-21T10:52:39.964Z,14.30
2017-09-21T10:55:06.411Z,14.30
2017-09-21T10:57:33.026Z,14.30
2017-09-21T10:59:59.515Z,14.40
2017-09-21T11:02:26.073Z,14.40
2017-09-21T11:04:53.250Z,14.40
2017-09-21T11:07:19.694Z,14.30
2017-09-21T11:09:46.124Z,14.30
2017-09-21T11:12:12.610Z,14.30
2017-09-21T11:14:39.071Z,14.30
2017-09-21T11:17:06.326Z,14.30
2017-09-21T11:19:32.938Z,14.30
2017-09-21T11:21:59.339Z,14.30
2017-09-21T11:24:25.972Z,14.40
2017-09-21T11:26:52.409Z,14.40
2017-09-21T11:29:18.861Z,14.60
2017-09-21T11:31:46.108Z,15.00
2017-09-21T11:34:12.516Z,15.00
2017-09-21T11:39:08.022Z,15.40
2017-09-21T11:41:34.758Z,15.40
2017-09-21T11:44:01.429Z,15.50
2017-09-21T11:46:28.793Z,15.40
2017-09-21T11:48:56.432Z,15.30
2017-09-21T11:51:24.246Z,15.40
2017-09-21T11:53:50.822Z,15.20
2017-09-21T11:56:17.414Z,15.30
2017-09-21T11:58:44.789Z,15.20
2017-09-21T12:01:11.496Z,15.10
2017-09-21T12:03:38.094Z,15.10
2017-09-21T12:06:05.431Z,15.00
2017-09-21T12:08:32.303Z,15.00
2017-09-21T12:10:59.186Z,15.00
2017-09-21T12:13:25.814Z,15.00
2017-09-21T12:15:53.095Z,14.90
2017-09-21T12:18:19.678Z,14.90
2017-09-21T12:20:46.302Z,14.90
2017-09-21T12:23:12.860Z,15.10
2017-09-21T12:25:39.868Z,15.30
2017-09-21T12:28:06.422Z,15.40
2017-09-21T12:30:33.024Z,15.60
2017-09-21T12:32:59.981Z,15.60
2017-09-21T12:35:26.875Z,15.50
2017-09-21T12:37:54.972Z,15.20
2017-09-21T12:40:21.536Z,15.20
2017-09-21T12:42:48.259Z,15.20
2017-09-21T12:45:14.978Z,15.20
2017-09-21T12:47:42.410Z,15.20
2017-09-21T12:50:09.750Z,15.40
2017-09-21T12:52:37.866Z,15.40
2017-09-21T12:55:04.383Z,15.40
2017-09-21T12:57:31.135Z,15.60
2017-09-21T12:59:58.691Z,15.60
2017-09-21T13:02:25.266Z,15.60
2017-09-21T13:04:52.186Z,15.70
2017-09-21T13:07:18.795Z,15.70
2017-09-21T13:09:45.554Z,15.60
2017-09-21T13:12:12.121Z,15.60
2017-09-21T13:14:38.623Z,15.60
2017-09-21T13:17:05.937Z,15.70
2017-09-21T13:19:33.085Z,15.70
2017-09-21T13:22:00.614Z,15.70
2017-09-21T13:24:27.171Z,15.70
2017-09-21T13:26:54.753Z,15.90
2017-09-21T13:29:21.359Z,15.90
2017-09-21T13:31:48.299Z,16.10
2017-09-21T13:34:14.862Z,16.10
2017-09-21T13:36:41.384Z,16.00
2017-09-21T13:39:08.104Z,15.90
2017-09-21T13:41:34.799Z,15.90
2017-09-21T13:44:01.975Z,15.90
2017-09-21T13:46:29.436Z,15.80
2017-09-21T13:51:56.207Z,15.80
2017-09-21T13:54:23.420Z,15.70
2017-09-21T13:56:49.854Z,15.70
2017-09-21T13:59:16.288Z,15.70
2017-09-21T14:01:42.756Z,15.60
2017-09-21T14:04:09.951Z,15.60
2017-09-21T14:06:36.425Z,15.60
2017-09-21T14:09:02.976Z,15.80
2017-09-21T14:11:29.429Z,15.90
2017-09-21T14:13:56.270Z,15.90
2017-09-21T14:16:23.011Z,16.00
2017-09-21T14:18:49.467Z,16.00
2017-09-21T14:21:15.911Z,16.00
2017-09-21T14:23:42.361Z,16.00
2017-09-21T14:26:08.803Z,16.10
2017-09-21T14:28:35.976Z,16.10
2017-09-21T14:31:03.192Z,16.00
2017-09-21T14:33:29.684Z,16.00
2017-09-21T14:35:56.209Z,16.00
2017-09-21T14:38:22.725Z,16.10
2017-09-21T14:40:50.966Z,16.00
2017-09-21T14:43:17.511Z,15.90
2017-09-21T14:45:44.024Z,15.90
2017-09-21T14:48:10.487Z,15.90
2017-09-21T14:50:36.933Z,15.80
2017-09-21T14:53:03.371Z,15.90
2017-09-21T14:55:30.543Z,15.70
2017-09-21T14:57:57.083Z,15.70
2017-09-21T15:00:23.528Z,15.70
2017-09-21T15:02:50.015Z,15.80
2017-09-21T15:05:17.239Z,15.70
2017-09-21T15:07:43.705Z,15.70
2017-09-21T15:10:10.173Z,15.70
2017-09-21T15:12:36.754Z,15.80
2017-09-21T15:15:03.242Z,15.90
2017-09-21T15:17:29.706Z,16.00
2017-09-21T15:19:56.149Z,16.00
2017-09-21T15:22:22.693Z,16.00
2017-09-21T15:24:49.168Z,16.00
2017-09-21T15:27:16.370Z,15.90
2017-09-21T15:29:42.831Z,15.90
2017-09-21T15:32:10.005Z,16.00
2017-09-21T15:34:36.452Z,15.90
2017-09-21T15:37:02.944Z,15.90
2017-09-21T15:39:30.327Z,15.90
2017-09-21T15:41:56.783Z,15.80
2017-09-21T15:44:23.223Z,15.90
2017-09-21T15:46:49.689Z,15.80
2017-09-21T15:49:17.650Z,15.80
2017-09-21T15:51:44.102Z,15.80
2017-09-21T15:54:10.570Z,15.80
2017-09-21T15:56:37.031Z,15.80
2017-09-21T15:59:03.494Z,15.90
2017-09-21T16:01:30.743Z,15.60
2017-09-21T16:03:57.200Z,15.60
2017-09-21T16:06:24.422Z,15.60
2017-09-21T16:08:50.864Z,15.60
2017-09-21T16:11:17.356Z,15.60
2017-09-21T16:13:43.853Z,15.50
2017-09-21T16:16:11.040Z,15.60
2017-09-21T16:18:37.505Z,15.50
2017-09-21T16:21:03.953Z,15.50
2017-09-21T16:23:30.375Z,15.60
2017-09-21T16:25:56.817Z,15.60
2017-09-21T16:28:23.276Z,15.60
2017-09-21T16:30:50.539Z,15.50
2017-09-21T16:33:17.016Z,15.50
2017-09-21T16:35:43.454Z,15.40
2017-09-21T16:38:09.935Z,15.30
2017-09-21T16:40:37.128Z,15.30
2017-09-21T16:43:03.587Z,15.30
2017-09-21T16:45:30.040Z,15.30
2017-09-21T16:47:57.219Z,15.30
2017-09-21T16:50:23.816Z,15.30
2017-09-21T16:52:51.041Z,15.30
2017-09-21T16:55:17.520Z,15.30
2017-09-21T16:57:44.720Z,15.20
2017-09-21T17:00:11.188Z,15.20
2017-09-21T17:02:37.680Z,15.20
2017-09-21T17:05:04.147Z,15.10
2017-09-21T17:07:30.691Z,15.10
2017-09-21T17:09:57.189Z,15.10
2017-09-21T17:12:23.644Z,15.00
2017-09-21T17:14:50.136Z,15.00
2017-09-21T17:17:16.638Z,15.00
2017-09-21T17:19:43.083Z,15.00
2017-09-21T17:22:10.458Z,15.00
2017-09-21T17:24:36.941Z,15.00
2017-09-21T17:27:04.920Z,14.90
2017-09-21T17:29:31.410Z,14.80
2017-09-21T17:31:57.872Z,14.90
2017-09-21T17:34:24.352Z,14.80
2017-09-21T17:36:50.793Z,14.90
2017-09-21T17:39:17.308Z,15.00
2017-09-21T17:41:44.495Z,15.00
2017-09-21T17:44:10.941Z,15.00
2017-09-21T17:46:37.415Z,15.10
2017-09-21T17:49:04.611Z,15.00
2017-09-21T17:51:31.032Z,15.00
2017-09-21T17:53:57.492Z,15.00
2017-09-21T17:56:23.947Z,14.90
2017-09-21T17:58:50.400Z,14.80
2017-09-21T18:01:17.689Z,14.80
2017-09-21T18:03:44.200Z,14.80
2017-09-21T18:06:12.313Z,14.80
2017-09-21T18:08:38.765Z,14.70
2017-09-21T18:11:05.219Z,14.80
2017-09-21T18:13:31.721Z,14.70
2017-09-21T18:15:58.242Z,14.80
2017-09-21T18:18:24.717Z,14.70
2017-09-21T18:20:51.204Z,14.70
2017-09-21T18:23:17.679Z,14.50
2017-09-21T18:25:44.169Z,14.40
2017-09-21T18:28:10.627Z,14.40
2017-09-21T18:30:37.067Z,14.30
2017-09-21T18:33:03.588Z,14.40
2017-09-21T18:35:30.033Z,14.40
2017-09-21T18:37:56.487Z,14.40
2017-09-21T18:40:23.082Z,14.40
2017-09-21T18:42:49.563Z,14.40
2017-09-21T18:45:16.813Z,14.50
2017-09-21T18:47:43.296Z,14.50
2017-09-21T18:50:09.739Z,14.40
2017-09-21T18:52:36.235Z,14.40
2017-09-21T18:55:03.411Z,14.40
2017-09-21T18:57:29.896Z,14.40
2017-09-21T18:59:56.387Z,14.40
2017-09-21T19:02:22.889Z,14.40
2017-09-21T19:04:49.356Z,14.40
2017-09-21T19:07:15.794Z,14.30
2017-09-21T19:09:42.324Z,14.30
2017-09-21T19:12:08.756Z,14.30
2017-09-21T19:14:35.260Z,14.30
2017-09-21T19:17:02.457Z,14.20
2017-09-21T19:19:28.925Z,14.20
2017-09-21T19:21:55.398Z,14.20
2017-09-21T19:24:21.881Z,14.20
2017-09-21T19:26:48.423Z,14.10
2017-09-21T19:29:16.375Z,14.10
2017-09-21T19:31:42.887Z,14.10
2017-09-21T19:34:09.343Z,14.00
2017-09-21T19:36:35.869Z,14.00
2017-09-21T19:39:02.433Z,14.00
2017-09-21T19:41:28.895Z,14.00
2017-09-21T19:43:56.114Z,13.80
2017-09-21T19:46:22.578Z,13.80
2017-09-21T19:48:49.810Z,13.70
2017-09-21T19:51:16.286Z,13.70
2017-09-21T19:53:42.804Z,13.70
2017-09-21T19:56:09.347Z,13.70
2017-09-21T19:58:35.866Z,13.70
2017-09-21T20:01:03.133Z,13.80
2017-09-21T20:03:29.720Z,13.80
2017-09-21T20:05:56.177Z,13.80
2017-09-21T20:08:23.408Z,13.70
2017-09-21T20:10:49.891Z,13.70
2017-09-21T20:13:16.356Z,13.70
2017-09-21T20:15:42.847Z,13.70
2017-09-21T20:18:10.029Z,13.70
2017-09-21T20:20:36.484Z,13.70
2017-09-21T20:23:03.723Z,13.70
2017-09-21T20:25:30.427Z,13.70
2017-09-21T20:27:56.921Z,13.70
2017-09-21T20:30:23.435Z,13.70
2017-09-21T20:32:49.888Z,13.60
2017-09-21T20:35:16.365Z,13.60
2017-09-21T20:37:43.557Z,13.40
2017-09-21T20:40:10.016Z,13.40
2017-09-21T20:42:36.525Z,13.40
2017-09-21T20:45:02.964Z,13.40
2017-09-21T20:47:29.455Z,13.40
2017-09-21T20:49:56.667Z,13.30
2017-09-21T20:52:23.134Z,13.30
2017-09-21T20:54:50.353Z,13.40
2017-09-21T20:57:16.858Z,13.30
2017-09-21T20:59:44.305Z,13.30
2017-09-21T21:02:10.779Z,13.30
2017-09-21T21:04:37.335Z,13.30
2017-09-21T21:07:04.577Z,13.20
2017-09-21T21:09:31.076Z,13.10
2017-09-21T21:11:57.533Z,13.20
2017-09-21T21:14:24.015Z,13.10
2017-09-21T21:16:50.541Z,13.00
2017-09-21T21:19:17.743Z,12.80
2017-09-21T21:21:44.200Z,12.70
2017-09-21T21:24:10.674Z,12.70
2017-09-21T21:26:37.146Z,12.80
2017-09-21T21:29:03.603Z,12.80
2017-09-21T21:31:30.278Z,12.80
2017-09-21T21:33:56.745Z,12.80
2017-09-21T21:36:23.205Z,12.70
2017-09-21T21:38:51.170Z,12.60
2017-09-21T21:41:17.644Z,12.60
2017-09-21T21:43:45.740Z,12.30
2017-09-21T21:46:12.163Z,12.30
2017-09-21T21:48:38.644Z,12.00
2017-09-21T21:51:05.098Z,11.90
2017-09-21T21:53:32.318Z,11.70
2017-09-21T21:55:58.763Z,11.70
2017-09-21T21:58:25.239Z,11.70
2017-09-21T22:00:51.794Z,11.70
2017-09-21T22:03:18.252Z,11.60
2017-09-21T22:05:44.776Z,11.70
2017-09-21T22:08:11.245Z,11.70
2017-09-21T22:10:37.741Z,11.80
2017-09-21T22:13:04.196Z,11.80
2017-09-21T22:15:32.120Z,11.80
2017-09-21T22:17:58.575Z,11.80
2017-09-21T22:20:25.195Z,11.90
2017-09-21T22:22:51.687Z,11.90
2017-09-21T22:25:18.889Z,11.90
2017-09-21T22:27:45.335Z,11.90
2017-09-21T22:30:11.760Z,11.80
2017-09-21T22:32:38.223Z,11.80
2017-09-21T22:35:04.672Z,11.80
2017-09-21T22:37:31.145Z,11.80
2017-09-21T22:39:57.599Z,11.80
2017-09-21T22:42:24.053Z,11.80
2017-09-21T22:44:50.546Z,11.80
2017-09-21T22:47:16.978Z,11.80
2017-09-21T22:49:43.442Z,11.90
2017-09-21T22:52:09.944Z,12.00
2017-09-21T22:54:36.386Z,12.00
2017-09-21T22:57:02.847Z,12.00
2017-09-21T22:59:29.291Z,12.00
2017-09-21T23:01:55.749Z,12.00
2017-09-21T23:04:22.931Z,12.10
2017-09-21T23:06:49.437Z,12.10
2017-09-21T23:09:16.652Z,12.20
2017-09-21T23:11:43.130Z,12.20
2017-09-21T23:14:09.595Z,12.20
2017-09-21T23:16:36.037Z,12.30
2017-09-21T23:19:02.469Z,12.40
2017-09-21T23:21:28.994Z,12.50
2017-09-21T23:23:55.469Z,12.50
2017-09-21T23:26:21.901Z,12.60
2017-09-21T23:28:48.360Z,12.60
2017-09-21T23:31:15.547Z,12.50
2017-09-21T23:33:42.009Z,12.50
2017-09-21T23:36:08.454Z,12.40
2017-09-21T23:38:34.896Z,12.30
2017-09-21T23:41:02.094Z,12.20
2017-09-21T23:43:28.543Z,12.20
2017-09-21T23:45:55.931Z,12.10
2017-09-21T23:48:23.159Z,11.90
2017-09-21T23:50:49.597Z,11.90
2017-09-21T23:53:16.042Z,11.80
2017-09-21T23:55:42.517Z,11.70
2017-09-21T23:58:09.001Z,11.70
